sensor_id;sensor_type;location;lat;lon;timestamp;temperature;humidity
6841;DHT22;3458;53.678;14.080;2023-02-19T00:01:21;3.40;99.90
6841;DHT22;3458;53.678;14.080;2023-02-19T00:03:52;3.50;99.90
6841;DHT22;3458;53.678;14.080;2023-02-19T00:06:20;3.40;99.90
6841;DHT22;3458;53.678;14.080;2023-02-19T00:08:46;3.50;99.90
6841;DHT22;3458;53.678;14.080;2023-02-19T00:11:14;3.50;99.90
6841;DHT22;3458;53.678;14.080;2023-02-19T00:13:42;3.50;99.90
6841;DHT22;3458;53.678;14.080;2023-02-19T00:16:09;3.50;99.90
6841;DHT22;3458;53.678;14.080;2023-02-19T00:18:36;3.50;99.90
6841;DHT22;3458;53.678;14.080;2023-02-19T00:21:03;3.50;99.90
6841;DHT22;3458;53.678;14.080;2023-02-19T00:23:28;3.50;99.90
6841;DHT22;3458;53.678;14.080;2023-02-19T00:25:54;3.50;99.90
6841;DHT22;3458;53.678;14.080;2023-02-19T00:28:20;3.50;99.90
6841;DHT22;3458;53.678;14.080;2023-02-19T00:30:45;3.60;99.90
6841;DHT22;3458;53.678;14.080;2023-02-19T00:33:11;3.60;99.90
6841;DHT22;3458;53.678;14.080;2023-02-19T00:35:37;3.50;99.90
6841;DHT22;3458;53.678;14.080;2023-02-19T00:38:03;3.60;99.90
6841;DHT22;3458;53.678;14.080;2023-02-19T00:40:29;3.60;99.90
6841;DHT22;3458;53.678;14.080;2023-02-19T00:42:55;3.60;99.90
6841;DHT22;3458;53.678;14.080;2023-02-19T00:45:21;3.60;99.90
6841;DHT22;3458;53.678;14.080;2023-02-19T00:47:46;3.60;99.90
6841;DHT22;3458;53.678;14.080;2023-02-19T00:50:12;3.70;99.90
6841;DHT22;3458;53.678;14.080;2023-02-19T00:52:37;3.70;99.90
6841;DHT22;3458;53.678;14.080;2023-02-19T00:55:03;3.70;99.90
6841;DHT22;3458;53.678;14.080;2023-02-19T00:57:29;3.70;99.90
6841;DHT22;3458;53.678;14.080;2023-02-19T00:59:54;3.70;99.90
6841;DHT22;3458;53.678;14.080;2023-02-19T01:02:20;3.60;99.90
6841;DHT22;3458;53.678;14.080;2023-02-19T01:04:45;3.70;99.90
6841;DHT22;3458;53.678;14.080;2023-02-19T01:07:11;3.60;99.90
6841;DHT22;3458;53.678;14.080;2023-02-19T01:09:36;3.60;99.90
6841;DHT22;3458;53.678;14.080;2023-02-19T01:12:03;3.60;99.90
6841;DHT22;3458;53.678;14.080;2023-02-19T01:14:29;3.60;99.90
6841;DHT22;3458;53.678;14.080;2023-02-19T01:16:54;3.60;99.90
6841;DHT22;3458;53.678;14.080;2023-02-19T01:19:20;3.60;99.90
6841;DHT22;3458;53.678;14.080;2023-02-19T01:21:46;3.60;99.90
6841;DHT22;3458;53.678;14.080;2023-02-19T01:24:11;3.60;99.90
6841;DHT22;3458;53.678;14.080;2023-02-19T01:26:37;3.60;99.90
6841;DHT22;3458;53.678;14.080;2023-02-19T01:29:02;3.60;99.90
6841;DHT22;3458;53.678;14.080;2023-02-19T01:31:28;3.60;99.90
6841;DHT22;3458;53.678;14.080;2023-02-19T01:33:57;3.60;99.90
6841;DHT22;3458;53.678;14.080;2023-02-19T01:36:23;3.60;99.90
6841;DHT22;3458;53.678;14.080;2023-02-19T01:38:49;3.50;99.90
6841;DHT22;3458;53.678;14.080;2023-02-19T01:41:17;3.50;99.90
6841;DHT22;3458;53.678;14.080;2023-02-19T01:46:41;3.50;99.90
6841;DHT22;3458;53.678;14.080;2023-02-19T01:49:20;3.50;99.90
6841;DHT22;3458;53.678;14.080;2023-02-19T01:51:56;3.60;99.90
6841;DHT22;3458;53.678;14.080;2023-02-19T01:54:25;3.60;99.90
6841;DHT22;3458;53.678;14.080;2023-02-19T01:56:53;3.50;99.90
6841;DHT22;3458;53.678;14.080;2023-02-19T01:59:19;3.50;99.90
6841;DHT22;3458;53.678;14.080;2023-02-19T02:01:45;3.50;99.90
6841;DHT22;3458;53.678;14.080;2023-02-19T02:04:12;3.50;99.90
6841;DHT22;3458;53.678;14.080;2023-02-19T02:06:49;3.50;99.90
6841;DHT22;3458;53.678;14.080;2023-02-19T02:09:17;3.50;99.90
6841;DHT22;3458;53.678;14.080;2023-02-19T02:12:02;3.50;99.90
6841;DHT22;3458;53.678;14.080;2023-02-19T02:14:30;3.50;99.90
6841;DHT22;3458;53.678;14.080;2023-02-19T02:19:42;3.50;99.90
6841;DHT22;3458;53.678;14.080;2023-02-19T02:22:16;3.60;99.90
6841;DHT22;3458;53.678;14.080;2023-02-19T02:24:49;3.60;99.90
6841;DHT22;3458;53.678;14.080;2023-02-19T02:30:30;3.50;99.90
6841;DHT22;3458;53.678;14.080;2023-02-19T02:33:03;3.50;99.90
6841;DHT22;3458;53.678;14.080;2023-02-19T02:35:45;3.50;99.90
6841;DHT22;3458;53.678;14.080;2023-02-19T02:38:12;3.60;99.90
6841;DHT22;3458;53.678;14.080;2023-02-19T02:40:42;3.50;99.90
6841;DHT22;3458;53.678;14.080;2023-02-19T02:43:08;3.50;99.90
6841;DHT22;3458;53.678;14.080;2023-02-19T02:45:34;3.50;99.90
6841;DHT22;3458;53.678;14.080;2023-02-19T02:48:04;3.50;99.90
6841;DHT22;3458;53.678;14.080;2023-02-19T02:50:37;3.40;99.90
6841;DHT22;3458;53.678;14.080;2023-02-19T02:53:17;3.40;99.90
6841;DHT22;3458;53.678;14.080;2023-02-19T02:56:03;3.50;99.90
6841;DHT22;3458;53.678;14.080;2023-02-19T02:58:29;3.50;99.90
6841;DHT22;3458;53.678;14.080;2023-02-19T03:01:00;3.50;99.90
6841;DHT22;3458;53.678;14.080;2023-02-19T03:03:47;3.50;99.90
6841;DHT22;3458;53.678;14.080;2023-02-19T03:06:16;3.50;99.90
6841;DHT22;3458;53.678;14.080;2023-02-19T03:09:13;3.50;99.90
6841;DHT22;3458;53.678;14.080;2023-02-19T03:11:43;3.50;99.90
6841;DHT22;3458;53.678;14.080;2023-02-19T03:14:36;3.50;99.90
6841;DHT22;3458;53.678;14.080;2023-02-19T03:17:40;3.50;99.90
6841;DHT22;3458;53.678;14.080;2023-02-19T03:20:26;3.50;99.90
6841;DHT22;3458;53.678;14.080;2023-02-19T03:22:55;3.50;99.90
6841;DHT22;3458;53.678;14.080;2023-02-19T03:25:24;3.50;99.90
6841;DHT22;3458;53.678;14.080;2023-02-19T03:28:11;3.50;99.90
6841;DHT22;3458;53.678;14.080;2023-02-19T03:30:40;3.40;99.90
6841;DHT22;3458;53.678;14.080;2023-02-19T03:33:21;3.40;99.90
6841;DHT22;3458;53.678;14.080;2023-02-19T03:35:53;3.50;99.90
6841;DHT22;3458;53.678;14.080;2023-02-19T03:38:25;3.50;99.90
6841;DHT22;3458;53.678;14.080;2023-02-19T03:41:02;3.50;99.90
6841;DHT22;3458;53.678;14.080;2023-02-19T03:46:16;3.50;99.90
6841;DHT22;3458;53.678;14.080;2023-02-19T03:48:55;3.50;99.90
6841;DHT22;3458;53.678;14.080;2023-02-19T03:51:39;3.50;99.90
6841;DHT22;3458;53.678;14.080;2023-02-19T03:54:42;3.50;99.90
6841;DHT22;3458;53.678;14.080;2023-02-19T03:57:20;3.50;99.90
6841;DHT22;3458;53.678;14.080;2023-02-19T03:59:56;3.50;99.90
6841;DHT22;3458;53.678;14.080;2023-02-19T04:05:13;3.50;99.90
6841;DHT22;3458;53.678;14.080;2023-02-19T04:07:44;3.50;99.90
6841;DHT22;3458;53.678;14.080;2023-02-19T04:10:11;3.50;99.90
6841;DHT22;3458;53.678;14.080;2023-02-19T04:12:39;3.60;99.90
6841;DHT22;3458;53.678;14.080;2023-02-19T04:15:10;3.60;99.90
6841;DHT22;3458;53.678;14.080;2023-02-19T04:17:40;3.60;99.90
6841;DHT22;3458;53.678;14.080;2023-02-19T04:20:09;3.60;99.90
6841;DHT22;3458;53.678;14.080;2023-02-19T04:22:36;3.60;99.90
6841;DHT22;3458;53.678;14.080;2023-02-19T04:25:03;3.70;99.90
6841;DHT22;3458;53.678;14.080;2023-02-19T04:27:28;3.70;99.90
6841;DHT22;3458;53.678;14.080;2023-02-19T04:29:54;3.70;99.90
6841;DHT22;3458;53.678;14.080;2023-02-19T04:32:19;3.70;99.90
6841;DHT22;3458;53.678;14.080;2023-02-19T04:34:45;3.70;99.90
6841;DHT22;3458;53.678;14.080;2023-02-19T04:37:10;3.70;99.90
6841;DHT22;3458;53.678;14.080;2023-02-19T04:39:36;3.70;99.90
6841;DHT22;3458;53.678;14.080;2023-02-19T04:42:01;3.70;99.90
6841;DHT22;3458;53.678;14.080;2023-02-19T04:44:27;3.70;99.90
6841;DHT22;3458;53.678;14.080;2023-02-19T04:46:52;3.70;99.90
6841;DHT22;3458;53.678;14.080;2023-02-19T04:49:18;3.60;99.90
6841;DHT22;3458;53.678;14.080;2023-02-19T04:51:43;3.50;99.90
6841;DHT22;3458;53.678;14.080;2023-02-19T04:54:09;3.50;99.90
6841;DHT22;3458;53.678;14.080;2023-02-19T04:56:34;3.50;99.90
6841;DHT22;3458;53.678;14.080;2023-02-19T04:59:00;3.60;99.90
6841;DHT22;3458;53.678;14.080;2023-02-19T05:01:25;3.60;99.90
6841;DHT22;3458;53.678;14.080;2023-02-19T05:03:51;3.60;99.90
6841;DHT22;3458;53.678;14.080;2023-02-19T05:06:17;3.60;99.90
6841;DHT22;3458;53.678;14.080;2023-02-19T05:08:42;3.60;99.90
6841;DHT22;3458;53.678;14.080;2023-02-19T05:11:09;3.50;99.90
6841;DHT22;3458;53.678;14.080;2023-02-19T05:13:36;3.60;99.90
6841;DHT22;3458;53.678;14.080;2023-02-19T05:16:19;3.60;99.90
6841;DHT22;3458;53.678;14.080;2023-02-19T05:18:45;3.60;99.90
6841;DHT22;3458;53.678;14.080;2023-02-19T05:21:11;3.60;99.90
6841;DHT22;3458;53.678;14.080;2023-02-19T05:23:38;3.50;99.90
6841;DHT22;3458;53.678;14.080;2023-02-19T05:26:15;3.60;99.90
6841;DHT22;3458;53.678;14.080;2023-02-19T05:28:45;3.60;99.90
6841;DHT22;3458;53.678;14.080;2023-02-19T05:31:12;3.50;99.90
6841;DHT22;3458;53.678;14.080;2023-02-19T05:33:38;3.50;99.90
6841;DHT22;3458;53.678;14.080;2023-02-19T05:36:11;3.40;99.90
6841;DHT22;3458;53.678;14.080;2023-02-19T05:38:38;3.50;99.90
6841;DHT22;3458;53.678;14.080;2023-02-19T05:41:17;3.40;99.90
6841;DHT22;3458;53.678;14.080;2023-02-19T05:43:44;3.40;99.90
6841;DHT22;3458;53.678;14.080;2023-02-19T05:46:12;3.40;99.90
6841;DHT22;3458;53.678;14.080;2023-02-19T05:48:38;3.50;99.90
6841;DHT22;3458;53.678;14.080;2023-02-19T05:51:12;3.50;99.90
6841;DHT22;3458;53.678;14.080;2023-02-19T05:53:39;3.50;99.90
6841;DHT22;3458;53.678;14.080;2023-02-19T05:58:46;3.50;99.90
6841;DHT22;3458;53.678;14.080;2023-02-19T06:01:17;3.50;99.90
6841;DHT22;3458;53.678;14.080;2023-02-19T06:03:43;3.60;99.90
6841;DHT22;3458;53.678;14.080;2023-02-19T06:06:13;3.50;99.90
6841;DHT22;3458;53.678;14.080;2023-02-19T06:08:39;3.50;99.90
6841;DHT22;3458;53.678;14.080;2023-02-19T06:11:04;3.50;99.90
6841;DHT22;3458;53.678;14.080;2023-02-19T06:13:30;3.50;99.90
6841;DHT22;3458;53.678;14.080;2023-02-19T06:15:55;3.50;99.90
6841;DHT22;3458;53.678;14.080;2023-02-19T06:18:21;3.50;99.90
6841;DHT22;3458;53.678;14.080;2023-02-19T06:20:47;3.50;99.90
6841;DHT22;3458;53.678;14.080;2023-02-19T06:23:12;3.50;99.90
6841;DHT22;3458;53.678;14.080;2023-02-19T06:25:38;3.50;99.90
6841;DHT22;3458;53.678;14.080;2023-02-19T06:28:04;3.50;99.90
6841;DHT22;3458;53.678;14.080;2023-02-19T06:30:29;3.50;99.90
6841;DHT22;3458;53.678;14.080;2023-02-19T06:32:55;3.50;99.90
6841;DHT22;3458;53.678;14.080;2023-02-19T06:35:21;3.50;99.90
6841;DHT22;3458;53.678;14.080;2023-02-19T06:37:47;3.50;99.90
6841;DHT22;3458;53.678;14.080;2023-02-19T06:40:13;3.50;99.90
6841;DHT22;3458;53.678;14.080;2023-02-19T06:42:38;3.50;99.90
6841;DHT22;3458;53.678;14.080;2023-02-19T06:45:04;3.50;99.90
6841;DHT22;3458;53.678;14.080;2023-02-19T06:47:31;3.40;99.90
6841;DHT22;3458;53.678;14.080;2023-02-19T06:49:57;3.50;99.90
6841;DHT22;3458;53.678;14.080;2023-02-19T06:52:23;3.40;99.90
6841;DHT22;3458;53.678;14.080;2023-02-19T06:54:48;3.40;99.90
6841;DHT22;3458;53.678;14.080;2023-02-19T06:57:14;3.50;99.90
6841;DHT22;3458;53.678;14.080;2023-02-19T06:59:39;3.40;99.90
6841;DHT22;3458;53.678;14.080;2023-02-19T07:02:05;3.30;99.90
6841;DHT22;3458;53.678;14.080;2023-02-19T07:04:30;3.30;99.90
6841;DHT22;3458;53.678;14.080;2023-02-19T07:06:56;3.30;99.90
6841;DHT22;3458;53.678;14.080;2023-02-19T07:09:21;3.40;99.90
6841;DHT22;3458;53.678;14.080;2023-02-19T07:11:49;3.40;99.90
6841;DHT22;3458;53.678;14.080;2023-02-19T07:14:15;3.40;99.90
6841;DHT22;3458;53.678;14.080;2023-02-19T07:16:42;3.40;99.90
6841;DHT22;3458;53.678;14.080;2023-02-19T07:19:09;3.40;99.90
6841;DHT22;3458;53.678;14.080;2023-02-19T07:21:34;3.40;99.90
6841;DHT22;3458;53.678;14.080;2023-02-19T07:24:02;3.40;99.90
6841;DHT22;3458;53.678;14.080;2023-02-19T07:26:28;3.50;99.90
6841;DHT22;3458;53.678;14.080;2023-02-19T07:28:54;3.50;99.90
6841;DHT22;3458;53.678;14.080;2023-02-19T07:31:21;3.60;99.90
6841;DHT22;3458;53.678;14.080;2023-02-19T07:33:48;3.60;99.90
6841;DHT22;3458;53.678;14.080;2023-02-19T07:36:14;3.60;99.90
6841;DHT22;3458;53.678;14.080;2023-02-19T07:38:41;3.70;99.90
6841;DHT22;3458;53.678;14.080;2023-02-19T07:41:06;3.70;99.90
6841;DHT22;3458;53.678;14.080;2023-02-19T07:43:34;3.70;99.90
6841;DHT22;3458;53.678;14.080;2023-02-19T07:46:08;3.80;99.90
6841;DHT22;3458;53.678;14.080;2023-02-19T07:48:35;3.80;99.90
6841;DHT22;3458;53.678;14.080;2023-02-19T07:51:02;3.80;99.90
6841;DHT22;3458;53.678;14.080;2023-02-19T07:53:29;3.80;99.90
6841;DHT22;3458;53.678;14.080;2023-02-19T07:55:58;3.80;99.90
6841;DHT22;3458;53.678;14.080;2023-02-19T07:58:25;3.90;99.90
6841;DHT22;3458;53.678;14.080;2023-02-19T08:00:50;4.00;99.90
6841;DHT22;3458;53.678;14.080;2023-02-19T08:03:16;4.10;99.90
6841;DHT22;3458;53.678;14.080;2023-02-19T08:05:41;4.10;99.90
6841;DHT22;3458;53.678;14.080;2023-02-19T08:08:13;4.10;99.90
6841;DHT22;3458;53.678;14.080;2023-02-19T08:10:39;4.10;99.90
6841;DHT22;3458;53.678;14.080;2023-02-19T08:13:24;4.20;99.90
6841;DHT22;3458;53.678;14.080;2023-02-19T08:18:28;4.30;99.90
6841;DHT22;3458;53.678;14.080;2023-02-19T08:20:55;4.30;99.90
6841;DHT22;3458;53.678;14.080;2023-02-19T08:23:21;4.40;99.90
6841;DHT22;3458;53.678;14.080;2023-02-19T08:25:47;4.50;99.90
6841;DHT22;3458;53.678;14.080;2023-02-19T08:28:13;4.60;99.90
6841;DHT22;3458;53.678;14.080;2023-02-19T08:30:40;4.70;99.90
6841;DHT22;3458;53.678;14.080;2023-02-19T08:33:09;4.70;99.90
6841;DHT22;3458;53.678;14.080;2023-02-19T08:35:36;4.70;99.90
6841;DHT22;3458;53.678;14.080;2023-02-19T08:38:02;4.70;99.90
6841;DHT22;3458;53.678;14.080;2023-02-19T08:40:28;4.70;99.90
6841;DHT22;3458;53.678;14.080;2023-02-19T08:42:53;4.70;99.90
6841;DHT22;3458;53.678;14.080;2023-02-19T08:45:19;4.70;99.90
6841;DHT22;3458;53.678;14.080;2023-02-19T08:47:45;4.80;99.90
6841;DHT22;3458;53.678;14.080;2023-02-19T08:50:11;4.90;99.90
6841;DHT22;3458;53.678;14.080;2023-02-19T08:52:37;4.90;99.90
6841;DHT22;3458;53.678;14.080;2023-02-19T08:55:03;5.10;99.90
6841;DHT22;3458;53.678;14.080;2023-02-19T08:57:29;5.20;99.90
6841;DHT22;3458;53.678;14.080;2023-02-19T08:59:55;5.20;99.90
6841;DHT22;3458;53.678;14.080;2023-02-19T09:02:22;5.30;99.90
6841;DHT22;3458;53.678;14.080;2023-02-19T09:04:48;5.30;99.90
6841;DHT22;3458;53.678;14.080;2023-02-19T09:07:13;5.40;99.90
6841;DHT22;3458;53.678;14.080;2023-02-19T09:09:39;5.50;99.90
6841;DHT22;3458;53.678;14.080;2023-02-19T09:12:09;5.60;99.90
6841;DHT22;3458;53.678;14.080;2023-02-19T09:14:36;5.60;99.90
6841;DHT22;3458;53.678;14.080;2023-02-19T09:17:03;5.70;99.90
6841;DHT22;3458;53.678;14.080;2023-02-19T09:19:29;5.80;99.90
6841;DHT22;3458;53.678;14.080;2023-02-19T09:21:55;5.80;99.90
6841;DHT22;3458;53.678;14.080;2023-02-19T09:24:21;5.80;99.90
6841;DHT22;3458;53.678;14.080;2023-02-19T09:26:51;5.90;99.90
6841;DHT22;3458;53.678;14.080;2023-02-19T09:29:17;5.80;99.90
6841;DHT22;3458;53.678;14.080;2023-02-19T09:31:42;5.70;99.90
6841;DHT22;3458;53.678;14.080;2023-02-19T09:34:08;5.70;99.90
6841;DHT22;3458;53.678;14.080;2023-02-19T09:36:33;5.90;99.90
6841;DHT22;3458;53.678;14.080;2023-02-19T09:39:00;6.00;99.90
6841;DHT22;3458;53.678;14.080;2023-02-19T09:44:01;6.40;99.90
6841;DHT22;3458;53.678;14.080;2023-02-19T09:46:46;6.50;99.90
6841;DHT22;3458;53.678;14.080;2023-02-19T09:49:27;6.50;99.90
6841;DHT22;3458;53.678;14.080;2023-02-19T09:52:01;6.50;99.90
6841;DHT22;3458;53.678;14.080;2023-02-19T09:54:29;6.60;99.90
6841;DHT22;3458;53.678;14.080;2023-02-19T09:56:57;6.70;99.90
6841;DHT22;3458;53.678;14.080;2023-02-19T09:59:46;6.70;99.90
6841;DHT22;3458;53.678;14.080;2023-02-19T10:02:22;6.80;99.90
6841;DHT22;3458;53.678;14.080;2023-02-19T10:04:48;6.80;99.90
6841;DHT22;3458;53.678;14.080;2023-02-19T10:07:18;6.70;99.90
6841;DHT22;3458;53.678;14.080;2023-02-19T10:09:47;6.80;99.90
6841;DHT22;3458;53.678;14.080;2023-02-19T10:12:18;7.00;99.90
6841;DHT22;3458;53.678;14.080;2023-02-19T10:14:48;6.90;99.90
6841;DHT22;3458;53.678;14.080;2023-02-19T10:17:29;6.90;99.90
6841;DHT22;3458;53.678;14.080;2023-02-19T10:19:56;6.70;99.90
6841;DHT22;3458;53.678;14.080;2023-02-19T10:22:23;6.70;99.90
6841;DHT22;3458;53.678;14.080;2023-02-19T10:24:51;6.80;99.90
6841;DHT22;3458;53.678;14.080;2023-02-19T10:27:18;6.90;99.90
6841;DHT22;3458;53.678;14.080;2023-02-19T10:29:45;7.20;99.90
6841;DHT22;3458;53.678;14.080;2023-02-19T10:32:14;7.40;99.90
6841;DHT22;3458;53.678;14.080;2023-02-19T10:34:42;7.50;99.90
6841;DHT22;3458;53.678;14.080;2023-02-19T10:37:15;7.40;99.90
6841;DHT22;3458;53.678;14.080;2023-02-19T10:39:46;7.30;99.90
6841;DHT22;3458;53.678;14.080;2023-02-19T10:42:21;7.50;99.90
6841;DHT22;3458;53.678;14.080;2023-02-19T10:44:59;7.50;99.90
6841;DHT22;3458;53.678;14.080;2023-02-19T10:47:27;7.20;99.90
6841;DHT22;3458;53.678;14.080;2023-02-19T10:49:56;7.20;99.90
6841;DHT22;3458;53.678;14.080;2023-02-19T10:52:28;7.40;99.90
6841;DHT22;3458;53.678;14.080;2023-02-19T10:55:13;7.70;99.90
6841;DHT22;3458;53.678;14.080;2023-02-19T10:57:39;7.90;99.90
6841;DHT22;3458;53.678;14.080;2023-02-19T11:02:41;7.80;99.90
6841;DHT22;3458;53.678;14.080;2023-02-19T11:07:37;7.60;99.90
6841;DHT22;3458;53.678;14.080;2023-02-19T11:10:04;7.60;99.90
6841;DHT22;3458;53.678;14.080;2023-02-19T11:12:32;7.80;99.90
6841;DHT22;3458;53.678;14.080;2023-02-19T11:15:19;7.90;99.90
6841;DHT22;3458;53.678;14.080;2023-02-19T11:17:45;8.00;99.90
6841;DHT22;3458;53.678;14.080;2023-02-19T11:20:18;8.20;99.90
6841;DHT22;3458;53.678;14.080;2023-02-19T11:22:44;8.40;99.90
6841;DHT22;3458;53.678;14.080;2023-02-19T11:28:04;8.50;99.90
6841;DHT22;3458;53.678;14.080;2023-02-19T11:30:41;8.50;99.90
6841;DHT22;3458;53.678;14.080;2023-02-19T11:35:44;8.40;99.90
6841;DHT22;3458;53.678;14.080;2023-02-19T11:38:12;8.30;99.90
6841;DHT22;3458;53.678;14.080;2023-02-19T11:40:55;8.30;99.90
6841;DHT22;3458;53.678;14.080;2023-02-19T11:46:36;7.70;99.90
6841;DHT22;3458;53.678;14.080;2023-02-19T11:49:16;7.50;99.90
6841;DHT22;3458;53.678;14.080;2023-02-19T11:57:34;7.50;99.90
6841;DHT22;3458;53.678;14.080;2023-02-19T12:00:19;7.50;99.90
6841;DHT22;3458;53.678;14.080;2023-02-19T12:03:16;7.30;99.90
6841;DHT22;3458;53.678;14.080;2023-02-19T12:06:11;7.10;99.90
6841;DHT22;3458;53.678;14.080;2023-02-19T12:09:09;7.00;99.90
6841;DHT22;3458;53.678;14.080;2023-02-19T12:14:44;7.00;99.90
6841;DHT22;3458;53.678;14.080;2023-02-19T12:17:27;7.10;99.90
6841;DHT22;3458;53.678;14.080;2023-02-19T12:20:32;7.20;99.90
6841;DHT22;3458;53.678;14.080;2023-02-19T12:23:32;7.20;99.40
6841;DHT22;3458;53.678;14.080;2023-02-19T12:31:31;7.00;97.70
6841;DHT22;3458;53.678;14.080;2023-02-19T12:45:16;7.30;95.90
6841;DHT22;3458;53.678;14.080;2023-02-19T12:48:05;6.90;95.60
6841;DHT22;3458;53.678;14.080;2023-02-19T12:50:34;6.70;95.90
6841;DHT22;3458;53.678;14.080;2023-02-19T12:53:19;6.80;96.40
6841;DHT22;3458;53.678;14.080;2023-02-19T12:55:46;6.70;96.30
6841;DHT22;3458;53.678;14.080;2023-02-19T13:00:53;6.90;96.90
6841;DHT22;3458;53.678;14.080;2023-02-19T13:03:32;7.00;96.60
6841;DHT22;3458;53.678;14.080;2023-02-19T13:06:25;7.40;96.90
6841;DHT22;3458;53.678;14.080;2023-02-19T13:08:56;8.00;96.60
6841;DHT22;3458;53.678;14.080;2023-02-19T13:11:31;8.10;93.90
6841;DHT22;3458;53.678;14.080;2023-02-19T13:14:13;7.90;92.00
6841;DHT22;3458;53.678;14.080;2023-02-19T13:16:44;7.60;91.50
6841;DHT22;3458;53.678;14.080;2023-02-19T13:19:10;7.50;92.00
6841;DHT22;3458;53.678;14.080;2023-02-19T13:21:39;7.70;92.50
6841;DHT22;3458;53.678;14.080;2023-02-19T13:24:27;7.90;92.90
6841;DHT22;3458;53.678;14.080;2023-02-19T13:37:49;9.70;89.70
6841;DHT22;3458;53.678;14.080;2023-02-19T13:40:33;10.10;85.80
6841;DHT22;3458;53.678;14.080;2023-02-19T13:43:02;10.30;82.00
6841;DHT22;3458;53.678;14.080;2023-02-19T13:50:29;10.80;75.10
6841;DHT22;3458;53.678;14.080;2023-02-19T13:53:01;10.90;74.60
6841;DHT22;3458;53.678;14.080;2023-02-19T13:55:44;10.90;72.80
6841;DHT22;3458;53.678;14.080;2023-02-19T13:58:37;10.90;69.40
6841;DHT22;3458;53.678;14.080;2023-02-19T14:01:10;10.90;67.20
6841;DHT22;3458;53.678;14.080;2023-02-19T14:03:52;11.00;66.70
6841;DHT22;3458;53.678;14.080;2023-02-19T14:06:18;11.40;66.10
6841;DHT22;3458;53.678;14.080;2023-02-19T14:08:53;11.80;63.80
6841;DHT22;3458;53.678;14.080;2023-02-19T14:16:47;12.50;62.10
6841;DHT22;3458;53.678;14.080;2023-02-19T14:19:44;12.50;60.90
6841;DHT22;3458;53.678;14.080;2023-02-19T14:22:00;12.70;59.70
6841;DHT22;3458;53.678;14.080;2023-02-19T14:24:27;12.70;60.60
6841;DHT22;3458;53.678;14.080;2023-02-19T14:26:55;13.30;60.50
6841;DHT22;3458;53.678;14.080;2023-02-19T14:29:21;13.50;58.40
6841;DHT22;3458;53.678;14.080;2023-02-19T14:31:47;13.40;56.80
6841;DHT22;3458;53.678;14.080;2023-02-19T14:34:20;13.20;57.40
6841;DHT22;3458;53.678;14.080;2023-02-19T14:36:55;13.20;57.30
6841;DHT22;3458;53.678;14.080;2023-02-19T14:39:32;13.30;56.90
6841;DHT22;3458;53.678;14.080;2023-02-19T14:42:05;13.20;54.60
6841;DHT22;3458;53.678;14.080;2023-02-19T14:44:50;13.10;54.90
6841;DHT22;3458;53.678;14.080;2023-02-19T14:47:19;13.10;56.70
6841;DHT22;3458;53.678;14.080;2023-02-19T14:49:56;13.40;56.50
6841;DHT22;3458;53.678;14.080;2023-02-19T14:52:33;13.60;57.20
6841;DHT22;3458;53.678;14.080;2023-02-19T14:55:07;13.40;54.50
6841;DHT22;3458;53.678;14.080;2023-02-19T14:57:42;13.30;54.20
6841;DHT22;3458;53.678;14.080;2023-02-19T15:00:40;13.10;54.40
6841;DHT22;3458;53.678;14.080;2023-02-19T15:03:26;13.20;55.10
6841;DHT22;3458;53.678;14.080;2023-02-19T15:06:02;13.40;54.30
6841;DHT22;3458;53.678;14.080;2023-02-19T15:08:55;13.60;54.10
6841;DHT22;3458;53.678;14.080;2023-02-19T15:11:22;13.70;52.90
6841;DHT22;3458;53.678;14.080;2023-02-19T15:13:51;13.60;52.00
6841;DHT22;3458;53.678;14.080;2023-02-19T15:16:18;13.80;51.30
6841;DHT22;3458;53.678;14.080;2023-02-19T15:18:46;13.70;50.80
6841;DHT22;3458;53.678;14.080;2023-02-19T15:21:24;14.10;50.40
6841;DHT22;3458;53.678;14.080;2023-02-19T15:23:54;14.00;50.50
6841;DHT22;3458;53.678;14.080;2023-02-19T15:26:23;13.60;50.90
6841;DHT22;3458;53.678;14.080;2023-02-19T15:29:00;13.60;50.90
6841;DHT22;3458;53.678;14.080;2023-02-19T15:31:27;12.60;52.00
6841;DHT22;3458;53.678;14.080;2023-02-19T15:33:53;11.60;54.10
6841;DHT22;3458;53.678;14.080;2023-02-19T15:36:32;10.60;55.70
6841;DHT22;3458;53.678;14.080;2023-02-19T15:39:00;9.60;58.10
6841;DHT22;3458;53.678;14.080;2023-02-19T15:41:31;8.80;59.50
6841;DHT22;3458;53.678;14.080;2023-02-19T15:46:40;8.10;63.10
6841;DHT22;3458;53.678;14.080;2023-02-19T15:49:11;8.00;64.10
6841;DHT22;3458;53.678;14.080;2023-02-19T15:51:44;7.60;65.10
6841;DHT22;3458;53.678;14.080;2023-02-19T15:54:27;7.50;66.30
6841;DHT22;3458;53.678;14.080;2023-02-19T15:56:58;7.40;67.30
6841;DHT22;3458;53.678;14.080;2023-02-19T15:59:32;7.30;67.90
6841;DHT22;3458;53.678;14.080;2023-02-19T16:02:01;7.10;68.90
6841;DHT22;3458;53.678;14.080;2023-02-19T16:04:28;7.00;69.30
6841;DHT22;3458;53.678;14.080;2023-02-19T16:07:00;6.90;69.60
6841;DHT22;3458;53.678;14.080;2023-02-19T16:09:39;6.80;70.20
6841;DHT22;3458;53.678;14.080;2023-02-19T16:12:22;6.80;70.50
6841;DHT22;3458;53.678;14.080;2023-02-19T16:14:48;6.80;70.80
6841;DHT22;3458;53.678;14.080;2023-02-19T16:17:20;6.60;71.30
6841;DHT22;3458;53.678;14.080;2023-02-19T16:22:20;6.40;72.70
6841;DHT22;3458;53.678;14.080;2023-02-19T16:24:50;6.40;73.10
6841;DHT22;3458;53.678;14.080;2023-02-19T16:27:34;6.30;73.60
6841;DHT22;3458;53.678;14.080;2023-02-19T16:32:42;6.10;74.60
6841;DHT22;3458;53.678;14.080;2023-02-19T16:35:34;6.00;75.00
6841;DHT22;3458;53.678;14.080;2023-02-19T16:38:01;5.80;75.70
6841;DHT22;3458;53.678;14.080;2023-02-19T16:41:03;5.80;76.20
6841;DHT22;3458;53.678;14.080;2023-02-19T16:43:36;5.80;76.50
6841;DHT22;3458;53.678;14.080;2023-02-19T16:46:02;5.70;77.10
6841;DHT22;3458;53.678;14.080;2023-02-19T16:48:28;5.70;77.10
6841;DHT22;3458;53.678;14.080;2023-02-19T16:50:53;5.70;77.20
6841;DHT22;3458;53.678;14.080;2023-02-19T16:53:22;5.70;77.10
6841;DHT22;3458;53.678;14.080;2023-02-19T16:55:49;5.70;77.10
6841;DHT22;3458;53.678;14.080;2023-02-19T16:58:15;5.70;77.20
6841;DHT22;3458;53.678;14.080;2023-02-19T17:00:40;5.70;77.00
6841;DHT22;3458;53.678;14.080;2023-02-19T17:03:09;5.70;76.60
6841;DHT22;3458;53.678;14.080;2023-02-19T17:05:36;5.70;76.90
6841;DHT22;3458;53.678;14.080;2023-02-19T17:08:18;5.60;76.80
6841;DHT22;3458;53.678;14.080;2023-02-19T17:10:45;5.60;77.10
6841;DHT22;3458;53.678;14.080;2023-02-19T17:13:11;5.50;77.30
6841;DHT22;3458;53.678;14.080;2023-02-19T17:15:36;5.60;77.50
6841;DHT22;3458;53.678;14.080;2023-02-19T17:18:02;5.50;77.40
6841;DHT22;3458;53.678;14.080;2023-02-19T17:20:29;5.50;77.50
6841;DHT22;3458;53.678;14.080;2023-02-19T17:22:56;5.50;77.80
6841;DHT22;3458;53.678;14.080;2023-02-19T17:25:22;5.50;77.90
6841;DHT22;3458;53.678;14.080;2023-02-19T17:27:47;5.40;78.10
6841;DHT22;3458;53.678;14.080;2023-02-19T17:30:28;5.40;78.70
6841;DHT22;3458;53.678;14.080;2023-02-19T17:32:54;5.40;78.90
6841;DHT22;3458;53.678;14.080;2023-02-19T17:35:19;5.30;79.50
6841;DHT22;3458;53.678;14.080;2023-02-19T17:37:45;5.30;79.80
6841;DHT22;3458;53.678;14.080;2023-02-19T17:40:28;5.30;80.60
6841;DHT22;3458;53.678;14.080;2023-02-19T17:42:53;5.20;81.10
6841;DHT22;3458;53.678;14.080;2023-02-19T17:45:19;5.20;81.80
6841;DHT22;3458;53.678;14.080;2023-02-19T17:47:45;5.20;82.40
6841;DHT22;3458;53.678;14.080;2023-02-19T17:50:14;5.20;82.50
6841;DHT22;3458;53.678;14.080;2023-02-19T17:52:40;5.20;83.30
6841;DHT22;3458;53.678;14.080;2023-02-19T17:55:06;5.10;83.70